Ithaca, New York
Current Conditions -  °F | °C
As of 2:56 PM on Tuesday 21 Oct 2014 (Local Time) from KITH Reporting Station
Overcast Overcast  
Wind Chill: 55°   Ceiling: 2200
Heat Index: 55°   Visibility: 10mi
Dew Point: 46°   Wind: 0mph
Humidity: 72%   Direction: NA
Pressure: 29.86"   Gusts: NA
Location:  42.44°N, 76.49°W
Report Text: KITH 211856Z 00000KT 10SM BKN022 OVC035 13/08 A2986 RMK AO2 T01270077 SLP115
Loading
Personal Weather Stations






























Interactive Weather Map
Tropical Storm Tracking
New forecast layout! Learn more

10-Day Weather Forecast

Advertisements
Track Severe Weather on mobile